Azalea, Virginia
Current Conditions -  °F | °C
As of 5:54 PM on Tuesday 25 Nov 2014 (Local Time) from KOFP Reporting Station
Clear Clear  
Wind Chill: 51°   Ceiling: Unl
Heat Index: 51°   Visibility: 10mi
Dew Point: 44°   Wind: 0mph
Humidity: 77%   Direction: NA
Pressure: 30.1"   Gusts: NA
Location:  37.619°N, 77.441°W
Report Text: KOFP 252254Z AUTO 00000KT 10SM CLR 11/07 A3010 RMK AO2 SLP191 T01060067
Loading
Personal Weather Stations






























Interactive Weather Map New forecast layout! Learn more

10-Day Weather Forecast

Advertisements
Track Severe Weather on mobile